createdAt,value
2023-02-01T00:00:12.971Z,101204.72
2023-02-01T00:02:43.658Z,101194.75
2023-02-01T00:05:12.645Z,101199.25
2023-02-01T00:07:43.135Z,101199.50
2023-02-01T00:10:12.917Z,101194.72
2023-02-01T00:12:41.720Z,101189.50
2023-02-01T00:15:11.562Z,101188.50
2023-02-01T00:17:39.564Z,101184.50
2023-02-01T00:20:09.619Z,101188.53
2023-02-01T00:22:39.740Z,101180.53
2023-02-01T00:25:09.153Z,101172.28
2023-02-01T00:27:39.693Z,101173.78
2023-02-01T00:30:14.263Z,101171.78
2023-02-01T00:32:42.942Z,101166.53
2023-02-01T00:35:11.737Z,101176.25
2023-02-01T00:37:41.659Z,101175.53
2023-02-01T00:40:11.340Z,101177.28
2023-02-01T00:42:39.625Z,101179.28
2023-02-01T00:45:14.842Z,101172.00
2023-02-01T00:47:43.845Z,101166.28
2023-02-01T00:50:12.655Z,101176.78
2023-02-01T00:52:41.224Z,101174.28
2023-02-01T00:55:10.056Z,101184.03
2023-02-01T00:57:38.575Z,101187.25
2023-02-01T01:00:08.588Z,101189.00
2023-02-01T01:02:38.190Z,101187.25
2023-02-01T01:05:06.510Z,101179.25
2023-02-01T01:07:34.659Z,101172.75
2023-02-01T01:10:03.185Z,101177.78
2023-02-01T01:12:31.228Z,101170.28
2023-02-01T01:15:00.212Z,101160.53
2023-02-01T01:17:28.255Z,101166.03
2023-02-01T01:19:59.930Z,101154.03
2023-02-01T01:22:28.125Z,101155.78
2023-02-01T01:24:56.323Z,101160.78
2023-02-01T01:27:26.020Z,101165.03
2023-02-01T01:29:54.364Z,101160.00
2023-02-01T01:32:22.877Z,101152.28
2023-02-01T01:34:51.157Z,101154.28
2023-02-01T01:37:21.144Z,101154.50
2023-02-01T01:39:49.393Z,101148.53
2023-02-01T01:42:17.677Z,101149.03
2023-02-01T01:45:02.140Z,101149.53
2023-02-01T01:47:35.815Z,101141.78
2023-02-01T01:50:05.588Z,101144.78
2023-02-01T01:52:36.462Z,101134.53
2023-02-01T01:55:06.338Z,101139.81
2023-02-01T01:57:39.466Z,101136.06
2023-02-01T02:00:14.240Z,101140.53
2023-02-01T02:02:47.327Z,101141.78
2023-02-01T02:05:17.765Z,101133.78
2023-02-01T02:07:48.489Z,101127.81
2023-02-01T02:10:18.167Z,101122.78
2023-02-01T02:12:49.613Z,101125.28
2023-02-01T02:15:19.299Z,101117.81
2023-02-01T02:17:55.794Z,101114.28
2023-02-01T02:20:48.570Z,101106.81
2023-02-01T02:23:41.598Z,101098.09
2023-02-01T02:26:41.863Z,101108.06
2023-02-01T02:29:34.820Z,101102.56
2023-02-01T02:32:40.705Z,101096.31
2023-02-01T02:35:19.597Z,101092.81
2023-02-01T02:37:55.552Z,101081.09
2023-02-01T02:40:33.256Z,101077.84
2023-02-01T02:43:25.802Z,101073.06
2023-02-01T02:46:17.729Z,101086.06
2023-02-01T02:48:54.260Z,101074.56
2023-02-01T02:52:01.891Z,101081.34
2023-02-01T02:54:59.242Z,101080.84
2023-02-01T02:57:49.642Z,101075.59
2023-02-01T03:00:37.769Z,101089.84
2023-02-01T03:03:24.894Z,101084.56
2023-02-01T03:05:53.473Z,101090.84
2023-02-01T03:08:25.034Z,101084.06
2023-02-01T03:10:58.512Z,101084.06
2023-02-01T03:13:37.327Z,101086.34
2023-02-01T03:16:14.788Z,101083.84
2023-02-01T03:18:51.163Z,101076.31
2023-02-01T03:21:25.399Z,101078.56
2023-02-01T03:24:00.566Z,101073.56
2023-02-01T03:26:34.803Z,101084.81
2023-02-01T03:29:11.196Z,101087.56
2023-02-01T03:31:39.527Z,101086.31
2023-02-01T03:34:08.641Z,101083.59
2023-02-01T03:36:41.136Z,101084.56
2023-02-01T03:39:18.295Z,101082.59
2023-02-01T03:41:51.641Z,101084.81
2023-02-01T03:44:25.279Z,101097.31
2023-02-01T03:46:58.742Z,101103.06
2023-02-01T03:49:30.148Z,101108.06
2023-02-01T03:52:04.559Z,101104.31
2023-02-01T03:54:35.410Z,101110.81
2023-02-01T03:57:10.261Z,101105.31
2023-02-01T03:59:40.981Z,101105.31
2023-02-01T04:02:10.301Z,101111.56
2023-02-01T04:04:40.472Z,101113.81
2023-02-01T04:07:09.328Z,101116.31
2023-02-01T04:09:38.769Z,101110.56
2023-02-01T04:12:07.255Z,101107.81
2023-02-01T04:14:35.738Z,101103.31
2023-02-01T04:17:04.245Z,101104.06
2023-02-01T04:19:32.731Z,101094.81
2023-02-01T04:22:00.922Z,101106.06
2023-02-01T04:24:29.517Z,101104.56
2023-02-01T04:26:59.453Z,101096.84
2023-02-01T04:29:27.867Z,101106.31
2023-02-01T04:31:56.062Z,101094.81
2023-02-01T04:34:27.417Z,101100.06
2023-02-01T04:36:56.224Z,101100.31
2023-02-01T04:39:24.649Z,101099.81
2023-02-01T04:41:53.213Z,101093.09
2023-02-01T04:44:22.834Z,101089.81
2023-02-01T04:46:51.502Z,101091.06
2023-02-01T04:49:21.073Z,101090.56
2023-02-01T04:51:51.894Z,101095.84
2023-02-01T04:54:20.304Z,101091.56
2023-02-01T04:56:51.336Z,101093.31
2023-02-01T04:59:20.061Z,101094.81
2023-02-01T05:01:49.887Z,101097.31
2023-02-01T05:04:20.135Z,101100.34
2023-02-01T05:06:48.353Z,101109.31
2023-02-01T05:09:16.700Z,101102.34
2023-02-01T05:12:02.567Z,101101.06
2023-02-01T05:14:30.798Z,101109.06
2023-02-01T05:17:00.434Z,101107.31
2023-02-01T05:19:28.773Z,101097.06
2023-02-01T05:21:57.038Z,101099.06
2023-02-01T05:24:28.124Z,101106.03
2023-02-01T05:26:57.939Z,101110.06
2023-02-01T05:29:26.986Z,101095.53
2023-02-01T05:31:55.988Z,101091.31
2023-02-01T05:34:26.012Z,101099.31
2023-02-01T05:36:54.493Z,101087.81
2023-02-01T05:39:22.955Z,101083.34
2023-02-01T05:41:51.131Z,101087.31
2023-02-01T05:44:19.852Z,101071.34
2023-02-01T05:46:50.514Z,101070.59
2023-02-01T05:49:18.911Z,101064.34
2023-02-01T05:51:48.342Z,101065.09
2023-02-01T05:54:16.555Z,101065.59
2023-02-01T05:56:47.937Z,101062.88
2023-02-01T05:59:16.434Z,101075.59
2023-02-01T06:01:44.749Z,101079.34
2023-02-01T06:04:12.964Z,101082.09
2023-02-01T06:06:41.175Z,101092.56
2023-02-01T06:09:10.757Z,101089.09
2023-02-01T06:11:39.090Z,101081.59
2023-02-01T06:14:08.817Z,101097.84
2023-02-01T06:16:36.679Z,101085.81
2023-02-01T06:19:07.205Z,101092.56
2023-02-01T06:21:40.053Z,101081.34
2023-02-01T06:24:16.487Z,101078.09
2023-02-01T06:26:44.995Z,101082.34
2023-02-01T06:29:13.581Z,101082.34
2023-02-01T06:31:43.377Z,101078.59
2023-02-01T06:34:11.580Z,101076.09
2023-02-01T06:36:39.719Z,101076.56
2023-02-01T06:39:08.414Z,101085.06
2023-02-01T06:41:39.972Z,101083.56
2023-02-01T06:44:08.420Z,101091.59
2023-02-01T06:46:36.700Z,101099.56
2023-02-01T06:49:04.932Z,101098.09
2023-02-01T06:51:33.312Z,101100.03
2023-02-01T06:54:01.376Z,101107.56
2023-02-01T06:56:29.941Z,101104.53
2023-02-01T06:58:59.715Z,101103.03
2023-02-01T07:01:27.825Z,101112.31
2023-02-01T07:03:56.194Z,101110.56
2023-02-01T07:06:24.804Z,101119.78
2023-02-01T07:08:53.118Z,101101.03
2023-02-01T07:11:21.569Z,101080.06
2023-02-01T07:13:52.776Z,101081.81
2023-02-01T07:16:23.018Z,101078.06
2023-02-01T07:18:52.328Z,101086.09
2023-02-01T07:21:20.911Z,101087.09
2023-02-01T07:23:49.122Z,101087.06
2023-02-01T07:26:18.111Z,101090.84
2023-02-01T07:28:47.698Z,101096.31
2023-02-01T07:31:19.250Z,101104.53
2023-02-01T07:33:49.150Z,101100.75
2023-02-01T07:36:18.749Z,101096.00
2023-02-01T07:38:48.988Z,101098.72
2023-02-01T07:41:17.578Z,101089.97
2023-02-01T07:43:46.235Z,101099.69
2023-02-01T07:46:16.339Z,101104.38
2023-02-01T07:48:44.665Z,101130.34
2023-02-01T07:51:16.075Z,101120.09
2023-02-01T07:53:45.456Z,101122.34
2023-02-01T07:56:16.055Z,101124.56
2023-02-01T07:58:44.232Z,101132.28
2023-02-01T08:01:21.832Z,101137.81
2023-02-01T08:03:52.295Z,101139.03
2023-02-01T08:06:22.922Z,101144.31
2023-02-01T08:08:51.748Z,101154.56
2023-02-01T08:11:21.896Z,101141.88
2023-02-01T08:13:52.205Z,101148.13
2023-02-01T08:16:22.231Z,101150.38
2023-02-01T08:18:50.517Z,101151.63
2023-02-01T08:21:23.106Z,101162.16
2023-02-01T08:23:51.312Z,101168.16
2023-02-01T08:26:21.699Z,101158.22
2023-02-01T08:28:53.394Z,101161.97
2023-02-01T08:31:24.037Z,101158.28
2023-02-01T08:33:54.069Z,101165.53
2023-02-01T08:36:25.921Z,101166.00
2023-02-01T08:38:55.695Z,101164.53
2023-02-01T08:41:25.107Z,101156.53
2023-02-01T08:43:55.119Z,101163.03
2023-02-01T08:46:24.794Z,101161.25
2023-02-01T08:48:53.440Z,101159.75
2023-02-01T08:51:24.853Z,101162.75
2023-02-01T08:53:53.880Z,101170.00
2023-02-01T08:56:22.936Z,101163.72
2023-02-01T08:58:51.611Z,101176.72
2023-02-01T09:01:20.067Z,101177.94
2023-02-01T09:03:49.025Z,101172.94
2023-02-01T09:06:17.910Z,101180.22
2023-02-01T09:08:47.585Z,101184.97
2023-02-01T09:11:19.855Z,101173.44
2023-02-01T09:13:49.379Z,101167.94
2023-02-01T09:16:17.900Z,101176.19
2023-02-01T09:18:55.957Z,101175.44
2023-02-01T09:21:30.896Z,101180.22
2023-02-01T09:24:00.839Z,101190.47
2023-02-01T09:26:32.997Z,101190.22
2023-02-01T09:29:02.163Z,101189.22
2023-02-01T09:31:30.791Z,101189.72
2023-02-01T09:33:59.223Z,101200.44
2023-02-01T09:36:30.093Z,101195.44
2023-02-01T09:39:01.884Z,101189.41
2023-02-01T09:41:43.051Z,101192.91
2023-02-01T09:44:29.896Z,101207.91
2023-02-01T09:47:01.631Z,101213.44
2023-02-01T09:49:34.199Z,101228.19
2023-02-01T09:52:06.744Z,101234.19
2023-02-01T09:54:44.935Z,101240.41
2023-02-01T09:57:18.596Z,101250.94
2023-02-01T09:59:53.159Z,101248.72
2023-02-01T10:02:25.295Z,101244.44
2023-02-01T10:04:57.530Z,101249.72
2023-02-01T10:07:37.444Z,101248.72
2023-02-01T10:10:17.206Z,101248.19
2023-02-01T10:13:24.471Z,101255.94
2023-02-01T10:16:05.240Z,101262.97
2023-02-01T10:18:48.900Z,101257.47
2023-02-01T10:21:28.123Z,101258.97
2023-02-01T10:24:20.797Z,101255.22
2023-02-01T10:26:58.210Z,101259.16
2023-02-01T10:29:32.284Z,101252.41
2023-02-01T10:32:00.901Z,101241.13
2023-02-01T10:34:33.541Z,101242.59
2023-02-01T10:37:03.359Z,101231.56
2023-02-01T10:39:31.666Z,101234.53
2023-02-01T10:42:01.362Z,101232.56
2023-02-01T10:44:33.098Z,101226.78
2023-02-01T10:47:01.332Z,101224.25
2023-02-01T10:49:39.339Z,101223.00
2023-02-01T10:52:14.837Z,101217.94
2023-02-01T10:54:44.898Z,101219.69
2023-02-01T10:57:27.210Z,101209.91
2023-02-01T10:59:55.419Z,101205.44
2023-02-01T11:02:31.065Z,101189.63
2023-02-01T11:05:04.290Z,101189.13
2023-02-01T11:07:33.551Z,101175.16
2023-02-01T11:10:02.890Z,101170.16
2023-02-01T11:12:36.231Z,101165.59
2023-02-01T11:15:16.904Z,101156.28
2023-02-01T11:17:47.833Z,101168.75
2023-02-01T11:20:18.565Z,101159.19
2023-02-01T11:22:54.664Z,101162.41
2023-02-01T11:25:23.776Z,101157.34
2023-02-01T11:27:56.531Z,101159.94
2023-02-01T11:30:35.328Z,101150.69
2023-02-01T11:33:06.947Z,101153.91
2023-02-01T11:35:40.203Z,101160.63
2023-02-01T11:38:21.556Z,101164.34
2023-02-01T11:40:50.743Z,101152.09
2023-02-01T11:43:26.114Z,101158.38
2023-02-01T11:46:00.389Z,101150.59
2023-02-01T11:48:33.673Z,101154.34
2023-02-01T11:51:24.852Z,101152.28
2023-02-01T11:54:08.145Z,101150.34
2023-02-01T11:56:39.340Z,101154.34
2023-02-01T11:59:23.453Z,101151.63
2023-02-01T12:02:05.010Z,101153.44
2023-02-01T12:05:01.115Z,101160.63
2023-02-01T12:07:45.747Z,101176.25
2023-02-01T12:10:29.159Z,101167.44
2023-02-01T12:13:11.104Z,101168.13
2023-02-01T12:15:54.825Z,101168.91
2023-02-01T12:18:41.895Z,101157.84
2023-02-01T12:21:25.381Z,101157.63
2023-02-01T12:24:11.052Z,101155.31
2023-02-01T12:26:47.727Z,101155.50
2023-02-01T12:29:27.183Z,101150.66
2023-02-01T12:32:13.179Z,101146.16
2023-02-01T12:35:07.776Z,101136.75
2023-02-01T12:37:56.744Z,101136.06
2023-02-01T12:40:40.186Z,101132.59
2023-02-01T12:43:16.302Z,101129.63
2023-02-01T12:45:48.839Z,101133.19
2023-02-01T12:48:30.391Z,101134.47
2023-02-01T12:51:02.898Z,101122.41
2023-02-01T12:53:40.075Z,101119.53
2023-02-01T12:56:14.698Z,101111.19
2023-02-01T12:58:48.563Z,101102.22
2023-02-01T13:01:23.668Z,101090.16
2023-02-01T13:04:14.432Z,101092.06
2023-02-01T13:06:47.204Z,101088.19
2023-02-01T13:09:24.065Z,101078.34
2023-02-01T13:11:55.704Z,101081.53
2023-02-01T13:14:31.353Z,101079.97
2023-02-01T13:17:04.308Z,101078.03
2023-02-01T13:19:42.978Z,101059.22
2023-02-01T13:22:16.433Z,101057.84
2023-02-01T13:24:47.774Z,101065.44
2023-02-01T13:27:18.185Z,101061.25
2023-02-01T13:29:55.547Z,101055.56
2023-02-01T13:32:57.108Z,101054.53
2023-02-01T13:36:00.549Z,101059.63
2023-02-01T13:38:57.001Z,101055.22
2023-02-01T13:41:31.778Z,101052.34
2023-02-01T13:44:03.804Z,101060.38
2023-02-01T13:46:32.706Z,101056.81
2023-02-01T13:49:04.711Z,101073.59
2023-02-01T13:51:39.547Z,101070.81
2023-02-01T13:54:08.243Z,101077.13
2023-02-01T13:56:44.943Z,101072.09
2023-02-01T13:59:50.298Z,101070.59
2023-02-01T14:03:04.745Z,101090.19
2023-02-01T14:06:01.394Z,101088.47
2023-02-01T14:08:44.166Z,101084.66
2023-02-01T14:11:44.552Z,101080.44
2023-02-01T14:14:47.118Z,101078.25
2023-02-01T14:17:37.979Z,101076.41
2023-02-01T14:21:00.840Z,101073.66
2023-02-01T14:23:32.903Z,101076.66
2023-02-01T14:26:20.008Z,101084.19
2023-02-01T14:29:04.694Z,101081.19
2023-02-01T14:31:59.392Z,101081.78
2023-02-01T14:34:35.551Z,101077.34
2023-02-01T14:37:06.304Z,101076.97
2023-02-01T14:39:48.191Z,101069.78
2023-02-01T14:42:24.575Z,101063.13
2023-02-01T14:44:58.982Z,101067.84
2023-02-01T14:47:36.106Z,101071.16
2023-02-01T14:50:34.472Z,101066.66
2023-02-01T14:53:26.620Z,101068.13
2023-02-01T14:55:59.598Z,101073.47
2023-02-01T14:58:38.242Z,101069.50
2023-02-01T15:01:15.820Z,101073.16
2023-02-01T15:03:52.150Z,101078.41
2023-02-01T15:06:28.572Z,101074.84
2023-02-01T15:09:00.598Z,101072.28
2023-02-01T15:11:28.954Z,101073.72
2023-02-01T15:14:00.831Z,101071.25
2023-02-01T15:16:29.941Z,101068.38
2023-02-01T15:19:12.559Z,101064.75
2023-02-01T15:21:49.228Z,101054.84
2023-02-01T15:24:22.998Z,101057.28
2023-02-01T15:26:52.029Z,101065.78
2023-02-01T15:29:23.215Z,101064.34
2023-02-01T15:31:53.022Z,101061.31
2023-02-01T15:34:23.282Z,101069.78
2023-02-01T15:37:03.136Z,101074.81
2023-02-01T15:39:33.525Z,101071.06
2023-02-01T15:42:11.079Z,101080.63
2023-02-01T15:44:43.688Z,101079.09
2023-02-01T15:47:17.797Z,101073.97
2023-02-01T15:49:49.247Z,101081.59
2023-02-01T15:52:26.778Z,101086.66
2023-02-01T15:54:59.017Z,101082.16
2023-02-01T15:57:32.714Z,101081.25
2023-02-01T16:00:07.082Z,101071.75
2023-02-01T16:02:54.958Z,101068.63
2023-02-01T16:05:33.252Z,101063.47
2023-02-01T16:08:05.635Z,101063.38
2023-02-01T16:10:42.996Z,101065.66
2023-02-01T16:13:11.576Z,101061.72
2023-02-01T16:15:41.697Z,101069.34
2023-02-01T16:18:13.519Z,101068.59
2023-02-01T16:20:45.366Z,101066.34
2023-02-01T16:23:13.731Z,101073.91
2023-02-01T16:25:42.580Z,101064.16
2023-02-01T16:28:11.163Z,101079.03
2023-02-01T16:30:41.276Z,101072.72
2023-02-01T16:33:16.381Z,101078.25
2023-02-01T16:35:44.751Z,101083.78
2023-02-01T16:38:14.847Z,101068.22
2023-02-01T16:40:44.366Z,101072.19
2023-02-01T16:43:15.657Z,101073.22
2023-02-01T16:45:48.936Z,101079.06
2023-02-01T16:48:22.679Z,101086.53
2023-02-01T16:50:55.693Z,101088.03
2023-02-01T16:53:26.321Z,101091.97
2023-02-01T16:55:54.648Z,101085.78
2023-02-01T16:58:23.239Z,101085.03
2023-02-01T17:00:55.371Z,101089.47
2023-02-01T17:03:24.633Z,101080.00
2023-02-01T17:05:55.448Z,101084.88
2023-02-01T17:08:30.022Z,101086.34
2023-02-01T17:10:58.314Z,101085.38
2023-02-01T17:13:27.144Z,101076.44
2023-02-01T17:16:00.220Z,101072.31
2023-02-01T17:18:31.659Z,101075.63
2023-02-01T17:21:00.607Z,101075.63
2023-02-01T17:23:30.456Z,101068.28
2023-02-01T17:25:59.575Z,101062.63
2023-02-01T17:28:27.970Z,101072.63
2023-02-01T17:30:58.980Z,101070.19
2023-02-01T17:33:29.732Z,101064.22
2023-02-01T17:36:07.418Z,101065.94
2023-02-01T17:38:35.918Z,101057.75
2023-02-01T17:41:05.048Z,101062.38
2023-02-01T17:43:33.251Z,101064.91
2023-02-01T17:46:07.299Z,101078.00
2023-02-01T17:48:35.801Z,101075.25
2023-02-01T17:51:05.660Z,101072.25
2023-02-01T17:53:35.732Z,101075.44
2023-02-01T17:56:04.015Z,101085.03
2023-02-01T17:58:34.235Z,101076.56
2023-02-01T18:01:03.798Z,101085.81
2023-02-01T18:03:35.640Z,101091.31
2023-02-01T18:06:05.670Z,101092.81
2023-02-01T18:08:35.386Z,101086.41
2023-02-01T18:11:03.991Z,101090.16
2023-02-01T18:13:33.909Z,101076.38
2023-02-01T18:16:04.534Z,101084.16
2023-02-01T18:18:34.184Z,101078.47
2023-02-01T18:21:02.983Z,101086.16
2023-02-01T18:23:31.484Z,101083.44
2023-02-01T18:25:59.929Z,101086.69
2023-02-01T18:28:28.390Z,101083.38
2023-02-01T18:30:56.989Z,101094.66
2023-02-01T18:33:26.699Z,101101.47
2023-02-01T18:35:55.538Z,101083.88
2023-02-01T18:38:24.793Z,101099.91
2023-02-01T18:40:56.404Z,101095.63
2023-02-01T18:43:24.978Z,101090.22
2023-02-01T18:45:54.666Z,101099.13
2023-02-01T18:48:23.470Z,101095.41
2023-02-01T18:50:57.530Z,101100.91
2023-02-01T18:53:27.992Z,101099.59
2023-02-01T18:55:56.865Z,101102.13
2023-02-01T18:58:26.435Z,101096.81
2023-02-01T19:00:56.133Z,101090.13
2023-02-01T19:03:29.275Z,101094.34
2023-02-01T19:05:59.318Z,101093.81
2023-02-01T19:08:27.980Z,101085.34
2023-02-01T19:10:56.320Z,101088.09
2023-02-01T19:13:29.211Z,101095.59
2023-02-01T19:15:59.109Z,101088.88
2023-02-01T19:18:27.346Z,101094.63
2023-02-01T19:20:55.765Z,101098.47
2023-02-01T19:23:25.801Z,101107.50
2023-02-01T19:25:54.326Z,101107.75
2023-02-01T19:28:22.585Z,101102.41
2023-02-01T19:30:51.485Z,101105.94
2023-02-01T19:33:19.773Z,101107.97
2023-02-01T19:35:48.031Z,101099.47
2023-02-01T19:38:16.716Z,101105.66
2023-02-01T19:40:50.003Z,101099.19
2023-02-01T19:43:18.168Z,101106.91
2023-02-01T19:45:46.336Z,101103.66
2023-02-01T19:48:18.842Z,101105.66
2023-02-01T19:50:47.047Z,101109.19
2023-02-01T19:53:15.718Z,101106.66
2023-02-01T19:55:49.400Z,101111.19
2023-02-01T19:58:18.093Z,101114.69
2023-02-01T20:00:45.573Z,101124.66
2023-02-01T20:03:14.508Z,101116.13
2023-02-01T20:05:43.014Z,101120.88
2023-02-01T20:08:11.384Z,101119.41
2023-02-01T20:10:44.719Z,101125.13
2023-02-01T20:13:14.620Z,101125.41
2023-02-01T20:15:43.203Z,101131.09
2023-02-01T20:18:12.663Z,101130.66
2023-02-01T20:20:41.868Z,101138.91
2023-02-01T20:23:10.427Z,101130.41
2023-02-01T20:25:39.542Z,101141.19
2023-02-01T20:28:07.822Z,101131.19
2023-02-01T20:30:37.952Z,101146.09
2023-02-01T20:33:06.687Z,101136.63
2023-02-01T20:35:36.343Z,101137.38
2023-02-01T20:38:04.506Z,101136.38
2023-02-01T20:40:33.139Z,101138.38
2023-02-01T20:43:01.340Z,101137.44
2023-02-01T20:45:30.059Z,101124.38
2023-02-01T20:47:59.521Z,101118.41
2023-02-01T20:50:27.837Z,101131.88
2023-02-01T20:53:02.144Z,101122.38
2023-02-01T20:55:34.223Z,101133.41
2023-02-01T20:58:02.661Z,101131.69
2023-02-01T21:00:36.764Z,101132.19
2023-02-01T21:03:10.938Z,101130.97
2023-02-01T21:05:46.485Z,101134.94
2023-02-01T21:08:17.058Z,101122.44
2023-02-01T21:10:59.295Z,101135.47
2023-02-01T21:13:31.582Z,101124.69
2023-02-01T21:16:11.254Z,101136.75
2023-02-01T21:18:42.505Z,101126.47
2023-02-01T21:21:16.006Z,101121.50
2023-02-01T21:23:47.612Z,101127.50
2023-02-01T21:26:24.426Z,101128.28
2023-02-01T21:28:54.503Z,101138.06
2023-02-01T21:31:32.662Z,101136.28
2023-02-01T21:34:02.224Z,101137.03
2023-02-01T21:36:35.934Z,101143.53
2023-02-01T21:39:18.242Z,101134.75
2023-02-01T21:42:07.018Z,101138.75
2023-02-01T21:44:39.483Z,101142.53
2023-02-01T21:47:10.741Z,101147.00
2023-02-01T21:49:46.410Z,101143.69
2023-02-01T21:52:19.843Z,101139.25
2023-02-01T21:54:58.284Z,101148.69
2023-02-01T21:57:28.943Z,101141.69
2023-02-01T22:00:04.468Z,101149.41
2023-02-01T22:02:39.122Z,101146.16
2023-02-01T22:05:11.185Z,101142.66
2023-02-01T22:07:41.861Z,101138.66
2023-02-01T22:10:13.387Z,101136.91
2023-02-01T22:12:41.823Z,101144.41
2023-02-01T22:15:11.710Z,101151.59
2023-02-01T22:17:40.317Z,101142.56
2023-02-01T22:20:12.186Z,101148.50
2023-02-01T22:22:41.151Z,101149.06
2023-02-01T22:25:10.537Z,101146.28
2023-02-01T22:28:29.493Z,101152.72
2023-02-01T22:30:27.340Z,101149.72
2023-02-01T22:32:58.032Z,101147.03
2023-02-01T22:35:28.350Z,101155.09
2023-02-01T22:37:56.558Z,101151.25
2023-02-01T22:40:25.374Z,101147.16
2023-02-01T22:42:53.820Z,101140.72
2023-02-01T22:45:22.762Z,101139.78
2023-02-01T22:47:52.912Z,101146.19
2023-02-01T22:50:22.094Z,101133.38
2023-02-01T22:52:52.251Z,101142.13
2023-02-01T22:55:20.457Z,101139.38
2023-02-01T22:57:48.914Z,101141.59
2023-02-01T23:00:17.402Z,101132.34
2023-02-01T23:02:46.027Z,101137.78
2023-02-01T23:05:16.375Z,101148.69
2023-02-01T23:07:46.847Z,101143.13
2023-02-01T23:10:18.047Z,101133.69
2023-02-01T23:12:46.736Z,101136.69
2023-02-01T23:15:16.232Z,101127.19
2023-02-01T23:17:45.740Z,101135.59
2023-02-01T23:20:16.834Z,101136.47
2023-02-01T23:22:47.124Z,101122.38
2023-02-01T23:25:19.242Z,101127.94
2023-02-01T23:27:48.812Z,101130.72
2023-02-01T23:30:17.963Z,101120.09
2023-02-01T23:32:46.203Z,101125.31
2023-02-01T23:35:14.979Z,101130.38
2023-02-01T23:37:44.321Z,101128.41
2023-02-01T23:40:14.205Z,101137.41
2023-02-01T23:43:04.251Z,101122.03
2023-02-01T23:45:31.587Z,101125.28
2023-02-01T23:47:59.678Z,101128.84
2023-02-01T23:50:29.517Z,101130.91
2023-02-01T23:52:57.816Z,101125.28
2023-02-01T23:55:28.686Z,101123.09
2023-02-01T23:57:58.194Z,101121.72
